Ambrose, Georgia
Current Conditions -  °F | °C
As of 6:35 AM on Saturday 20 Dec 2014 (Local Time) from KDQH Reporting Station
Light Rain Light Rain  
Wind Chill: 52°   Ceiling: 3900
Heat Index: 52°   Visibility: 10mi
Dew Point: 48°   Wind: 3mph
Humidity: 88%   Direction: 80°E
Pressure: 30.15"   Gusts: NA
Location:  31.59°N, 83.01°W
Report Text: KDQH 201135Z AUTO 08003KT 10SM -RA OVC039 11/09 A3015 RMK AO2
Loading
Personal Weather Stations






























Interactive Weather Map New forecast layout! Learn more

10-Day Weather Forecast

Advertisements
Track Severe Weather on mobile